Time;durP1;ratioP1;P1;durP2;ratioP2;P2;SDS_P1;SDS_P2;PMS_P1;PMS_P2;Temp;Humidity;BMP_temperature;BMP_pressure;BME280_temperature;BME280_humidity;BME280_pressure;Samples;Min_cycle;Max_cycle;Signal;HPM_P1;HPM_P2
2022/03/15 00:02:20;;;;;;;83.82;14.00;;;;;;;;;;5047582;28;20052;-73
2022/03/15 00:04:45;;;;;;;81.22;13.32;;;;;;;;;;4965453;28;20476;-70
2022/03/15 00:07:13;;;;;;;79.95;13.23;;;;;;;;;;4983465;28;20066;-69
2022/03/15 00:09:39;;;;;;;72.20;12.10;;;;;;;;;;4964742;28;20431;-72
2022/03/15 00:12:08;;;;;;;82.90;13.27;;;;;;;;;;4959425;28;20043;-72
2022/03/15 00:14:37;;;;;;;99.63;14.77;;;;;;;;;;4972572;28;20056;-70
2022/03/15 00:17:05;;;;;;;78.53;14.15;;;;;;;;;;4957828;28;20051;-69
2022/03/15 00:19:32;;;;;;;71.30;12.07;;;;;;;;;;4968023;28;20053;-69
2022/03/15 00:21:57;;;;;;;101.95;14.63;;;;;;;;;;4955357;28;20055;-69
2022/03/15 00:24:24;;;;;;;82.40;13.30;;;;;;;;;;4972152;28;20054;-75
2022/03/15 00:26:50;;;;;;;79.15;14.43;;;;;;;;;;4975282;28;20125;-69
2022/03/15 00:29:18;;;;;;;82.80;14.10;;;;;;;;;;4966972;28;20515;-70
2022/03/15 00:31:44;;;;;;;86.93;14.60;;;;;;;;;;4976348;28;20192;-73
2022/03/15 00:34:10;;;;;;;89.30;13.00;;;;;;;;;;4971994;28;20519;-71
2022/03/15 00:36:37;;;;;;;93.03;13.75;;;;;;;;;;4992685;28;20072;-70
2022/03/15 00:39:07;;;;;;;77.78;12.90;;;;;;;;;;4963449;28;20488;-70
2022/03/15 00:41:33;;;;;;;90.03;14.35;;;;;;;;;;4978096;28;20055;-70
2022/03/15 00:43:59;;;;;;;80.18;13.18;;;;;;;;;;5005759;28;20044;-70
2022/03/15 00:46:25;;;;;;;85.57;12.15;;;;;;;;;;4985460;28;20138;-72
2022/03/15 00:48:50;;;;;;;89.38;12.70;;;;;;;;;;5022309;28;20133;-69
2022/03/15 00:51:16;;;;;;;89.78;14.32;;;;;;;;;;4993562;28;20046;-70
2022/03/15 00:53:42;;;;;;;76.07;12.15;;;;;;;;;;4980243;28;20038;-70
2022/03/15 00:56:08;;;;;;;75.60;13.02;;;;;;;;;;4966106;28;20567;-74
2022/03/15 00:58:34;;;;;;;86.20;13.23;;;;;;;;;;4967583;28;20038;-73
2022/03/15 01:01:00;;;;;;;100.22;14.52;;;;;;;;;;4966364;28;20055;-73
2022/03/15 01:03:26;;;;;;;81.13;13.95;;;;;;;;;;4974849;28;20192;-70
2022/03/15 01:05:52;;;;;;;85.80;13.25;;;;;;;;;;4966390;28;20457;-70
2022/03/15 01:08:18;;;;;;;113.25;16.98;;;;;;;;;;5004154;28;20086;-71
2022/03/15 01:10:44;;;;;;;95.50;15.93;;;;;;;;;;4972113;28;20081;-69
2022/03/15 01:13:11;;;;;;;87.50;13.30;;;;;;;;;;5010156;28;20423;-70
2022/03/15 01:15:44;;;;;;;82.50;13.65;;;;;;;;;;5010648;28;20041;-71
2022/03/15 01:18:12;;;;;;;83.90;13.03;;;;;;;;;;4967101;28;20077;-73
2022/03/15 01:20:40;;;;;;;107.90;14.93;;;;;;;;;;4968183;28;20047;-70
2022/03/15 01:23:06;;;;;;;76.68;12.38;;;;;;;;;;5050852;28;20388;-71
2022/03/15 01:25:33;;;;;;;91.47;14.77;;;;;;;;;;4994774;28;20124;-69
2022/03/15 01:27:59;;;;;;;85.65;12.88;;;;;;;;;;4967463;28;20642;-70
2022/03/15 01:30:25;;;;;;;77.32;12.80;;;;;;;;;;4968163;28;20122;-74
2022/03/15 01:32:51;;;;;;;76.15;12.32;;;;;;;;;;4963423;28;20047;-69
2022/03/15 01:35:17;;;;;;;103.40;13.20;;;;;;;;;;4973967;28;20119;-73
2022/03/15 01:37:43;;;;;;;97.13;13.55;;;;;;;;;;4965641;28;20039;-69
2022/03/15 01:40:10;;;;;;;90.07;14.00;;;;;;;;;;4969856;28;20054;-68
2022/03/15 01:42:36;;;;;;;97.47;13.13;;;;;;;;;;4982493;28;22282;-71
2022/03/15 01:45:04;;;;;;;98.18;13.93;;;;;;;;;;4985262;28;20042;-71
2022/03/15 01:47:30;;;;;;;81.15;12.70;;;;;;;;;;4968643;28;20085;-67
2022/03/15 01:49:56;;;;;;;84.25;12.25;;;;;;;;;;4978783;28;20055;-73
2022/03/15 01:52:22;;;;;;;90.68;14.32;;;;;;;;;;4973638;28;20492;-71
2022/03/15 01:54:49;;;;;;;80.75;13.50;;;;;;;;;;5027048;28;20046;-69
2022/03/15 01:57:16;;;;;;;87.28;13.15;;;;;;;;;;4995517;28;20093;-74
2022/03/15 01:59:42;;;;;;;103.88;13.65;;;;;;;;;;4992245;28;20095;-70
2022/03/15 02:02:09;;;;;;;84.25;14.00;;;;;;;;;;4981099;28;20051;-69
2022/03/15 02:04:38;;;;;;;95.47;13.68;;;;;;;;;;4969788;28;20058;-68
2022/03/15 02:07:07;;;;;;;84.85;13.07;;;;;;;;;;4965496;28;20050;-68
2022/03/15 02:09:33;;;;;;;119.93;15.35;;;;;;;;;;4969777;28;20058;-72
2022/03/15 02:11:59;;;;;;;94.05;14.10;;;;;;;;;;5000874;28;20056;-68
2022/03/15 02:14:25;;;;;;;83.43;13.77;;;;;;;;;;4965385;28;20047;-68
2022/03/15 02:16:52;;;;;;;113.18;16.05;;;;;;;;;;4977638;28;20180;-68
2022/03/15 02:19:18;;;;;;;93.10;12.50;;;;;;;;;;4968564;28;20044;-68
2022/03/15 02:21:44;;;;;;;102.28;15.00;;;;;;;;;;4970392;28;20042;-70
2022/03/15 02:24:10;;;;;;;103.13;12.93;;;;;;;;;;5014006;28;20050;-68
2022/03/15 02:26:36;;;;;;;87.00;13.77;;;;;;;;;;5005816;28;20053;-68
2022/03/15 02:29:02;;;;;;;97.43;13.77;;;;;;;;;;4966293;28;20430;-69
2022/03/15 02:31:27;;;;;;;87.40;13.95;;;;;;;;;;4975953;28;20044;-70
2022/03/15 02:33:54;;;;;;;85.00;12.50;;;;;;;;;;4974557;28;20077;-69
2022/03/15 02:36:20;;;;;;;101.18;14.55;;;;;;;;;;4976668;28;20050;-74
2022/03/15 02:38:46;;;;;;;79.18;12.93;;;;;;;;;;4970741;28;20043;-70
2022/03/15 02:41:13;;;;;;;98.93;14.60;;;;;;;;;;4975638;28;20083;-69
2022/03/15 02:43:41;;;;;;;101.57;14.88;;;;;;;;;;5010422;28;20051;-70
2022/03/15 02:46:07;;;;;;;93.63;14.15;;;;;;;;;;5023792;28;20139;-70
2022/03/15 02:48:34;;;;;;;78.70;13.27;;;;;;;;;;4990349;28;20413;-70
2022/03/15 02:51:05;;;;;;;96.78;14.85;;;;;;;;;;4986078;28;20064;-68
2022/03/15 02:53:30;;;;;;;77.20;13.27;;;;;;;;;;4966670;28;20043;-71
2022/03/15 02:55:56;;;;;;;91.22;15.43;;;;;;;;;;4975325;28;20070;-68
2022/03/15 02:58:22;;;;;;;94.50;13.77;;;;;;;;;;4986991;28;20043;-69
2022/03/15 03:00:48;;;;;;;95.82;14.85;;;;;;;;;;4975753;28;20057;-69
2022/03/15 03:03:14;;;;;;;104.80;15.48;;;;;;;;;;4987531;28;20046;-67
2022/03/15 03:05:40;;;;;;;91.45;13.35;;;;;;;;;;4973692;28;20050;-70
2022/03/15 03:08:06;;;;;;;97.43;13.90;;;;;;;;;;4999589;28;20051;-72
2022/03/15 03:10:33;;;;;;;99.43;14.77;;;;;;;;;;4966756;28;20127;-68
2022/03/15 03:12:59;;;;;;;99.63;13.10;;;;;;;;;;4973973;28;20154;-68
2022/03/15 03:15:26;;;;;;;82.15;14.52;;;;;;;;;;4977003;28;20045;-68
2022/03/15 03:17:52;;;;;;;110.97;14.88;;;;;;;;;;4966913;28;20043;-68
2022/03/15 03:20:21;;;;;;;100.68;13.95;;;;;;;;;;4971139;28;20051;-68
2022/03/15 03:22:50;;;;;;;111.60;13.65;;;;;;;;;;4999082;28;20156;-67
2022/03/15 03:25:18;;;;;;;111.50;14.63;;;;;;;;;;4983538;28;20527;-68
2022/03/15 03:27:46;;;;;;;97.97;14.05;;;;;;;;;;5039890;28;20104;-67
2022/03/15 03:30:13;;;;;;;129.27;14.10;;;;;;;;;;4964434;28;20465;-70
2022/03/15 03:32:39;;;;;;;86.07;13.00;;;;;;;;;;4977503;28;20045;-68
2022/03/15 03:35:05;;;;;;;110.10;14.35;;;;;;;;;;4971601;28;20115;-68
2022/03/15 03:37:32;;;;;;;100.72;13.15;;;;;;;;;;4967507;28;20099;-68
2022/03/15 03:39:59;;;;;;;90.80;12.77;;;;;;;;;;4982780;28;20037;-67
2022/03/15 03:42:25;;;;;;;98.07;13.48;;;;;;;;;;5002167;28;20481;-69
2022/03/15 03:44:51;;;;;;;101.07;14.25;;;;;;;;;;4983865;28;20071;-68
2022/03/15 03:47:17;;;;;;;115.85;14.40;;;;;;;;;;4981150;28;20161;-73
2022/03/15 03:49:43;;;;;;;98.63;14.57;;;;;;;;;;4972198;28;20116;-69
2022/03/15 03:52:12;;;;;;;94.05;14.63;;;;;;;;;;4993920;28;20047;-74
2022/03/15 03:54:38;;;;;;;119.35;14.02;;;;;;;;;;5013097;28;20443;-68
2022/03/15 03:57:04;;;;;;;98.15;15.65;;;;;;;;;;4983822;28;20047;-69
2022/03/15 03:59:30;;;;;;;107.95;15.55;;;;;;;;;;4993322;28;20051;-69
2022/03/15 04:01:56;;;;;;;96.10;13.15;;;;;;;;;;4966220;28;20058;-67
2022/03/15 04:04:22;;;;;;;95.35;14.15;;;;;;;;;;4964163;28;20042;-72
2022/03/15 04:06:48;;;;;;;83.05;12.90;;;;;;;;;;4959752;28;20521;-74
2022/03/15 04:09:14;;;;;;;109.97;15.35;;;;;;;;;;4966460;28;20422;-69
2022/03/15 04:11:41;;;;;;;101.78;14.75;;;;;;;;;;4985807;28;20051;-69
2022/03/15 04:14:10;;;;;;;102.28;15.07;;;;;;;;;;4966015;28;20050;-70
2022/03/15 04:16:37;;;;;;;91.93;15.20;;;;;;;;;;4970549;28;20050;-67
2022/03/15 04:19:04;;;;;;;108.28;14.05;;;;;;;;;;4964973;28;20043;-68
2022/03/15 04:21:30;;;;;;;110.00;15.27;;;;;;;;;;5025011;28;20131;-68
2022/03/15 04:23:57;;;;;;;97.43;14.05;;;;;;;;;;4965723;28;20079;-72
2022/03/15 04:26:24;;;;;;;110.90;15.85;;;;;;;;;;4961763;28;20062;-68
2022/03/15 04:28:51;;;;;;;88.00;13.75;;;;;;;;;;4967903;28;20489;-72
2022/03/15 04:31:17;;;;;;;86.32;13.55;;;;;;;;;;4972206;28;20051;-69
2022/03/15 04:33:43;;;;;;;102.80;13.38;;;;;;;;;;5012435;28;20519;-69
2022/03/15 04:36:09;;;;;;;102.18;14.70;;;;;;;;;;4990288;28;20040;-70
2022/03/15 04:38:36;;;;;;;87.28;13.35;;;;;;;;;;4963486;28;20454;-70
2022/03/15 04:41:05;;;;;;;95.65;13.43;;;;;;;;;;4992722;28;20412;-69
2022/03/15 04:43:31;;;;;;;102.15;15.05;;;;;;;;;;4967022;28;20054;-70
2022/03/15 04:45:58;;;;;;;96.75;14.75;;;;;;;;;;5014720;28;20419;-69
2022/03/15 04:48:24;;;;;;;91.05;14.77;;;;;;;;;;4988901;28;20045;-70
2022/03/15 04:50:50;;;;;;;106.90;13.27;;;;;;;;;;5004009;28;20043;-68
2022/03/15 04:53:17;;;;;;;100.95;13.23;;;;;;;;;;4979135;28;20051;-68
2022/03/15 04:55:43;;;;;;;84.20;13.02;;;;;;;;;;4990158;28;20126;-69
2022/03/15 04:58:09;;;;;;;101.68;14.77;;;;;;;;;;4964415;28;20174;-68
2022/03/15 05:00:35;;;;;;;106.10;13.38;;;;;;;;;;4965869;28;20059;-71
2022/03/15 05:03:01;;;;;;;95.75;14.15;;;;;;;;;;4970865;28;20129;-68
2022/03/15 05:05:27;;;;;;;86.18;13.30;;;;;;;;;;4983906;28;20053;-71
2022/03/15 05:07:53;;;;;;;97.15;14.95;;;;;;;;;;4967148;28;20054;-68
2022/03/15 05:13:03;;;;;;;106.82;16.27;;;;;;;;;;4980435;28;20041;-72
2022/03/15 05:15:29;;;;;;;104.20;15.43;;;;;;;;;;4975915;28;20045;-68
2022/03/15 05:17:55;;;;;;;98.78;13.93;;;;;;;;;;4964478;28;20066;-66
2022/03/15 05:20:21;;;;;;;105.93;14.88;;;;;;;;;;4979925;28;20077;-71
2022/03/15 05:22:46;;;;;;;98.10;14.18;;;;;;;;;;5007244;28;20558;-67
2022/03/15 05:25:13;;;;;;;90.10;14.27;;;;;;;;;;4989508;28;20054;-67
2022/03/15 05:27:41;;;;;;;114.28;14.93;;;;;;;;;;4970302;28;20055;-69
2022/03/15 05:30:07;;;;;;;114.68;15.20;;;;;;;;;;4983109;28;20058;-69
2022/03/15 05:32:33;;;;;;;102.05;15.13;;;;;;;;;;4964747;28;20093;-68
2022/03/15 05:35:00;;;;;;;105.93;15.13;;;;;;;;;;4966262;28;20046;-71
2022/03/15 05:37:25;;;;;;;90.95;14.60;;;;;;;;;;4969582;28;20447;-68
2022/03/15 05:39:51;;;;;;;108.03;14.63;;;;;;;;;;4963688;28;20077;-71
2022/03/15 05:42:18;;;;;;;108.00;16.00;;;;;;;;;;4931069;28;20504;-68
2022/03/15 05:44:44;;;;;;;94.15;13.27;;;;;;;;;;4944038;28;20107;-70
2022/03/15 05:47:10;;;;;;;96.82;14.05;;;;;;;;;;4942403;28;20059;-74
2022/03/15 05:49:36;;;;;;;99.40;14.30;;;;;;;;;;4958775;28;20046;-68
2022/03/15 05:52:03;;;;;;;122.15;15.93;;;;;;;;;;4955369;28;20051;-70
2022/03/15 05:54:30;;;;;;;106.35;14.80;;;;;;;;;;4957223;28;20138;-68
2022/03/15 05:56:56;;;;;;;105.22;15.52;;;;;;;;;;4957628;28;20133;-67
2022/03/15 05:59:22;;;;;;;92.35;14.32;;;;;;;;;;4954471;28;20141;-70
2022/03/15 06:01:48;;;;;;;108.28;15.82;;;;;;;;;;4950658;28;20512;-68
2022/03/15 06:04:14;;;;;;;90.47;15.20;;;;;;;;;;4956922;28;20046;-69
2022/03/15 06:06:40;;;;;;;103.78;15.15;;;;;;;;;;4953930;28;20476;-68
2022/03/15 06:09:06;;;;;;;103.95;15.15;;;;;;;;;;4950498;28;20059;-68
2022/03/15 06:11:32;;;;;;;102.20;14.63;;;;;;;;;;4951154;28;20653;-67
2022/03/15 06:14:01;;;;;;;109.40;15.48;;;;;;;;;;4956216;28;20370;-69
2022/03/15 06:16:27;;;;;;;118.40;18.25;;;;;;;;;;4956744;28;20412;-70
2022/03/15 06:18:53;;;;;;;103.13;15.63;;;;;;;;;;4954521;28;20048;-69
2022/03/15 06:21:19;;;;;;;95.30;15.02;;;;;;;;;;4953331;28;20446;-67
2022/03/15 06:23:45;;;;;;;96.55;15.65;;;;;;;;;;4955123;28;20515;-72
2022/03/15 06:26:11;;;;;;;108.22;17.70;;;;;;;;;;4955129;28;20133;-68
2022/03/15 06:28:37;;;;;;;91.05;14.98;;;;;;;;;;4950047;28;20633;-69
2022/03/15 06:31:04;;;;;;;92.95;15.45;;;;;;;;;;4952735;28;20141;-67
2022/03/15 06:33:30;;;;;;;78.07;13.77;;;;;;;;;;4955109;28;20145;-66
2022/03/15 06:35:56;;;;;;;94.07;13.95;;;;;;;;;;4948563;28;20089;-70
2022/03/15 06:38:24;;;;;;;86.53;13.07;;;;;;;;;;4950476;28;20049;-70
2022/03/15 06:40:51;;;;;;;97.80;14.15;;;;;;;;;;4949836;28;20055;-68
2022/03/15 06:43:17;;;;;;;87.90;14.18;;;;;;;;;;4952395;28;20042;-67
2022/03/15 06:45:44;;;;;;;92.60;14.48;;;;;;;;;;4953625;28;20047;-69
2022/03/15 06:48:10;;;;;;;89.65;14.00;;;;;;;;;;4953915;28;20047;-69
2022/03/15 06:50:36;;;;;;;88.72;14.38;;;;;;;;;;4952792;28;20067;-68
2022/03/15 06:53:03;;;;;;;87.03;14.05;;;;;;;;;;4956304;28;20058;-71
2022/03/15 06:55:29;;;;;;;97.20;14.65;;;;;;;;;;4955956;28;20057;-69
2022/03/15 06:57:55;;;;;;;92.88;13.98;;;;;;;;;;4951596;28;20050;-72
2022/03/15 07:00:21;;;;;;;91.60;12.88;;;;;;;;;;4954493;28;20090;-68
2022/03/15 07:02:47;;;;;;;106.15;14.73;;;;;;;;;;4956014;28;20073;-68
2022/03/15 07:05:13;;;;;;;94.38;15.77;;;;;;;;;;4960492;28;20377;-71
2022/03/15 07:07:40;;;;;;;82.75;13.60;;;;;;;;;;4950546;28;20448;-70
2022/03/15 07:10:07;;;;;;;100.25;15.40;;;;;;;;;;4951754;28;20696;-69
2022/03/15 07:12:33;;;;;;;87.45;15.55;;;;;;;;;;4949418;28;20047;-67
2022/03/15 07:15:00;;;;;;;85.65;14.65;;;;;;;;;;4955820;28;20055;-70
2022/03/15 07:17:27;;;;;;;97.30;14.40;;;;;;;;;;4957493;28;20110;-69
2022/03/15 07:19:53;;;;;;;98.43;14.43;;;;;;;;;;4954496;28;20069;-72
2022/03/15 07:22:19;;;;;;;84.85;13.82;;;;;;;;;;4964191;28;20048;-70
2022/03/15 07:24:45;;;;;;;83.07;12.75;;;;;;;;;;4949983;28;20042;-71
2022/03/15 07:27:11;;;;;;;96.82;14.98;;;;;;;;;;4955321;28;20050;-69
2022/03/15 07:29:37;;;;;;;84.85;13.35;;;;;;;;;;4949197;28;20111;-71
2022/03/15 07:32:03;;;;;;;82.97;13.57;;;;;;;;;;4961653;28;20051;-70
2022/03/15 07:34:29;;;;;;;80.30;12.70;;;;;;;;;;4964355;28;20065;-69
2022/03/15 07:36:55;;;;;;;82.45;12.27;;;;;;;;;;4955130;28;20050;-67
2022/03/15 07:39:20;;;;;;;101.55;15.98;;;;;;;;;;4962006;28;20077;-67
2022/03/15 07:41:46;;;;;;;90.88;12.52;;;;;;;;;;4949571;28;20496;-71
2022/03/15 07:44:13;;;;;;;90.78;12.85;;;;;;;;;;4966490;28;20140;-67
2022/03/15 07:46:40;;;;;;;78.60;13.68;;;;;;;;;;4959012;28;20043;-69
2022/03/15 07:49:07;;;;;;;87.47;14.93;;;;;;;;;;4969042;28;20091;-76
2022/03/15 07:51:34;;;;;;;77.43;12.80;;;;;;;;;;4964227;28;20047;-63
2022/03/15 07:54:00;;;;;;;69.38;12.68;;;;;;;;;;4971975;28;20050;-69
2022/03/15 07:56:26;;;;;;;105.93;14.75;;;;;;;;;;4979264;28;20047;-72
2022/03/15 07:58:52;;;;;;;88.40;15.95;;;;;;;;;;4969766;28;20061;-72
2022/03/15 08:01:19;;;;;;;90.47;14.60;;;;;;;;;;4965360;28;20051;-71
2022/03/15 08:03:45;;;;;;;84.97;13.52;;;;;;;;;;4960272;28;20413;-71
2022/03/15 08:06:11;;;;;;;72.15;12.15;;;;;;;;;;4951157;28;20050;-71
2022/03/15 08:08:37;;;;;;;82.47;14.48;;;;;;;;;;4970006;28;20046;-72
2022/03/15 08:11:06;;;;;;;73.43;13.68;;;;;;;;;;4973702;28;20041;-75
2022/03/15 08:13:34;;;;;;;80.80;12.98;;;;;;;;;;4967615;28;20401;-70
2022/03/15 08:16:01;;;;;;;74.15;12.70;;;;;;;;;;4968369;28;20046;-72
2022/03/15 08:18:27;;;;;;;92.07;13.57;;;;;;;;;;4961504;28;20051;-75
2022/03/15 08:20:53;;;;;;;90.10;12.75;;;;;;;;;;4964993;28;20050;-72
2022/03/15 08:23:20;;;;;;;71.32;11.60;;;;;;;;;;4966973;28;20055;-72
2022/03/15 08:25:46;;;;;;;77.60;12.00;;;;;;;;;;4968970;28;20043;-70
2022/03/15 08:28:12;;;;;;;79.40;12.98;;;;;;;;;;4964654;28;20051;-73
2022/03/15 08:30:38;;;;;;;83.68;13.70;;;;;;;;;;5011194;28;20051;-70
2022/03/15 08:33:04;;;;;;;77.78;13.18;;;;;;;;;;4971433;28;20046;-72
2022/03/15 08:35:30;;;;;;;66.03;11.65;;;;;;;;;;4970458;28;20385;-72
2022/03/15 08:37:56;;;;;;;77.88;13.77;;;;;;;;;;4960642;28;20039;-71
2022/03/15 08:40:23;;;;;;;78.90;11.45;;;;;;;;;;4969659;28;20057;-70
2022/03/15 08:42:49;;;;;;;83.45;12.57;;;;;;;;;;4964307;28;20264;-73
2022/03/15 08:45:16;;;;;;;83.93;13.60;;;;;;;;;;4967533;28;20053;-71
2022/03/15 08:47:42;;;;;;;84.78;14.38;;;;;;;;;;4970112;28;20079;-71
2022/03/15 08:50:09;;;;;;;94.32;13.93;;;;;;;;;;4965262;28;20047;-71
2022/03/15 08:52:35;;;;;;;80.60;13.25;;;;;;;;;;4962907;28;20423;-70
2022/03/15 08:55:02;;;;;;;72.65;13.10;;;;;;;;;;4964492;28;20055;-73
2022/03/15 08:57:29;;;;;;;66.93;12.02;;;;;;;;;;4967268;28;20038;-73
2022/03/15 08:59:55;;;;;;;94.15;13.15;;;;;;;;;;4969305;28;20051;-74
2022/03/15 09:02:21;;;;;;;95.43;13.15;;;;;;;;;;4967375;28;20051;-73
2022/03/15 09:04:47;;;;;;;86.05;13.07;;;;;;;;;;4985121;28;20065;-73
2022/03/15 09:07:13;;;;;;;87.38;13.00;;;;;;;;;;4963569;28;20047;-74
2022/03/15 09:09:39;;;;;;;80.80;12.18;;;;;;;;;;4961894;28;20047;-70
2022/03/15 09:12:05;;;;;;;77.30;12.63;;;;;;;;;;4967592;28;20625;-68
2022/03/15 09:14:32;;;;;;;71.63;11.85;;;;;;;;;;4966601;28;20047;-72
2022/03/15 09:16:59;;;;;;;77.47;12.90;;;;;;;;;;4965236;28;20419;-71
2022/03/15 09:19:25;;;;;;;78.72;12.80;;;;;;;;;;4964671;28;20512;-70
2022/03/15 09:21:51;;;;;;;79.63;13.18;;;;;;;;;;4965734;28;20087;-76
2022/03/15 09:24:17;;;;;;;64.57;11.20;;;;;;;;;;4968834;28;20054;-70
2022/03/15 09:26:43;;;;;;;91.65;13.85;;;;;;;;;;4966522;28;20066;-69
2022/03/15 09:29:12;;;;;;;89.45;13.05;;;;;;;;;;4966311;28;20043;-73
2022/03/15 09:31:38;;;;;;;73.30;13.48;;;;;;;;;;4966219;28;20059;-70
2022/03/15 09:34:04;;;;;;;89.88;13.32;;;;;;;;;;4965147;28;20061;-70
2022/03/15 09:36:31;;;;;;;75.05;12.02;;;;;;;;;;4961709;28;20047;-70
2022/03/15 09:38:58;;;;;;;93.22;12.88;;;;;;;;;;4971427;28;20051;-71
2022/03/15 09:41:25;;;;;;;77.22;12.55;;;;;;;;;;4966741;28;20156;-70
2022/03/15 09:43:54;;;;;;;64.10;11.90;;;;;;;;;;4966926;28;20096;-71
2022/03/15 09:46:22;;;;;;;84.65;13.20;;;;;;;;;;4968241;28;20311;-72
2022/03/15 09:48:54;;;;;;;85.88;13.80;;;;;;;;;;4967117;28;20042;-71
2022/03/15 09:51:20;;;;;;;74.97;12.35;;;;;;;;;;4967368;28;20301;-72
2022/03/15 09:53:49;;;;;;;81.68;12.95;;;;;;;;;;4963402;28;20043;-70
2022/03/15 09:56:16;;;;;;;74.85;12.48;;;;;;;;;;4999086;28;20666;-72
2022/03/15 09:58:43;;;;;;;81.93;11.57;;;;;;;;;;4962470;28;20042;-75
2022/03/15 10:01:16;;;;;;;78.57;12.48;;;;;;;;;;4961568;28;20570;-73
2022/03/15 10:03:43;;;;;;;73.00;10.95;;;;;;;;;;4964011;28;20131;-75
2022/03/15 10:06:09;;;;;;;85.13;12.15;;;;;;;;;;4969847;28;20101;-70
2022/03/15 10:08:35;;;;;;;75.85;11.85;;;;;;;;;;4970890;28;20050;-71
2022/03/15 10:11:02;;;;;;;79.63;12.38;;;;;;;;;;4971838;28;20047;-71
2022/03/15 10:13:28;;;;;;;76.43;12.65;;;;;;;;;;4970490;28;20074;-70
2022/03/15 10:15:59;;;;;;;84.15;12.55;;;;;;;;;;4967617;28;20436;-69
2022/03/15 10:18:26;;;;;;;73.85;12.35;;;;;;;;;;4970132;28;20051;-78
2022/03/15 10:20:53;;;;;;;73.10;11.25;;;;;;;;;;4970060;28;20078;-74
2022/03/15 10:23:24;;;;;;;78.97;11.50;;;;;;;;;;4956415;28;20121;-75
2022/03/15 10:25:53;;;;;;;70.43;11.43;;;;;;;;;;4969534;28;20073;-69
2022/03/15 10:28:19;;;;;;;74.18;11.93;;;;;;;;;;4966993;28;20142;-70
2022/03/15 10:30:47;;;;;;;69.18;12.30;;;;;;;;;;4963442;28;20065;-70
2022/03/15 10:33:14;;;;;;;78.65;12.57;;;;;;;;;;4959673;28;20291;-71
2022/03/15 10:35:42;;;;;;;65.18;12.00;;;;;;;;;;4967439;28;20050;-69
2022/03/15 10:38:10;;;;;;;68.10;11.65;;;;;;;;;;4969153;28;20051;-74
2022/03/15 10:40:48;;;;;;;82.13;10.98;;;;;;;;;;4969053;28;20039;-74
2022/03/15 10:43:20;;;;;;;73.10;12.35;;;;;;;;;;4968786;28;20043;-69
2022/03/15 10:45:50;;;;;;;80.57;13.30;;;;;;;;;;4970374;28;20050;-69
2022/03/15 10:48:20;;;;;;;83.30;13.60;;;;;;;;;;4969292;28;20053;-71
2022/03/15 10:50:55;;;;;;;79.22;12.50;;;;;;;;;;4968103;28;20077;-69
2022/03/15 10:53:28;;;;;;;75.72;11.88;;;;;;;;;;4966854;28;20058;-72
2022/03/15 10:56:18;;;;;;;69.88;11.13;;;;;;;;;;4963521;28;20499;-74
2022/03/15 10:58:55;;;;;;;80.38;13.00;;;;;;;;;;4967247;28;20047;-74
2022/03/15 11:01:23;;;;;;;59.42;10.52;;;;;;;;;;4967563;28;20059;-72
2022/03/15 11:04:05;;;;;;;74.10;12.00;;;;;;;;;;4984718;28;20100;-72
2022/03/15 11:06:30;;;;;;;60.40;11.65;;;;;;;;;;4960907;28;20035;-72
2022/03/15 11:09:00;;;;;;;76.00;12.05;;;;;;;;;;4966467;28;20512;-73
2022/03/15 11:11:27;;;;;;;79.25;13.57;;;;;;;;;;4968341;28;20038;-72
2022/03/15 11:14:06;;;;;;;82.50;11.57;;;;;;;;;;4965788;28;20086;-70
2022/03/15 11:16:36;;;;;;;87.88;11.55;;;;;;;;;;4963950;28;20057;-73
2022/03/15 11:19:05;;;;;;;83.55;11.63;;;;;;;;;;4969107;28;20050;-69
2022/03/15 11:21:35;;;;;;;73.72;10.35;;;;;;;;;;4965276;28;20047;-69
2022/03/15 11:24:03;;;;;;;70.35;11.68;;;;;;;;;;4965582;28;20596;-73
2022/03/15 11:26:31;;;;;;;71.82;11.25;;;;;;;;;;4970335;28;20118;-69
2022/03/15 11:28:58;;;;;;;69.47;11.50;;;;;;;;;;4968776;28;20054;-70
2022/03/15 11:31:24;;;;;;;65.95;11.05;;;;;;;;;;4965111;28;20043;-69
2022/03/15 11:33:51;;;;;;;70.43;10.27;;;;;;;;;;4968214;28;20043;-68
2022/03/15 11:36:19;;;;;;;73.13;12.18;;;;;;;;;;4967116;28;20169;-71
2022/03/15 11:38:45;;;;;;;79.32;12.07;;;;;;;;;;4962102;28;20051;-71
2022/03/15 11:41:11;;;;;;;83.88;12.20;;;;;;;;;;4972264;28;20051;-70
2022/03/15 11:43:50;;;;;;;89.40;11.55;;;;;;;;;;4973590;28;20528;-72
2022/03/15 11:46:50;;;;;;;86.28;12.23;;;;;;;;;;4967982;28;20473;-71
2022/03/15 11:49:19;;;;;;;69.97;10.98;;;;;;;;;;4954693;28;20125;-69
2022/03/15 11:52:18;;;;;;;71.40;11.77;;;;;;;;;;4964650;28;20043;-72
2022/03/15 11:55:02;;;;;;;66.47;11.48;;;;;;;;;;4961135;28;20129;-72
2022/03/15 11:57:38;;;;;;;82.90;12.07;;;;;;;;;;4960090;28;20039;-71
2022/03/15 12:00:06;;;;;;;65.28;10.57;;;;;;;;;;4965181;28;20054;-75
2022/03/15 12:02:39;;;;;;;78.50;10.93;;;;;;;;;;4964766;28;20073;-74
2022/03/15 12:05:20;;;;;;;88.97;12.43;;;;;;;;;;4959373;28;20042;-72
2022/03/15 12:08:12;;;;;;;81.65;12.75;;;;;;;;;;4963305;28;20417;-70
2022/03/15 12:10:45;;;;;;;82.10;12.25;;;;;;;;;;4969520;28;20046;-72
2022/03/15 12:13:14;;;;;;;82.80;13.05;;;;;;;;;;4964269;28;20039;-69
2022/03/15 12:15:48;;;;;;;78.97;11.73;;;;;;;;;;4960144;28;20057;-68
2022/03/15 12:21:02;;;;;;;67.82;11.32;;;;;;;;;;4971587;28;20042;-73
2022/03/15 12:23:44;;;;;;;84.05;14.07;;;;;;;;;;4966039;28;20447;-74
2022/03/15 12:26:27;;;;;;;79.65;12.82;;;;;;;;;;4964832;28;20050;-69
2022/03/15 12:29:08;;;;;;;81.10;13.32;;;;;;;;;;5013374;28;20058;-71
2022/03/15 12:31:46;;;;;;;72.30;12.20;;;;;;;;;;4966502;28;20455;-70
2022/03/15 12:34:14;;;;;;;90.18;11.80;;;;;;;;;;4958113;28;20047;-70
2022/03/15 12:36:49;;;;;;;78.10;12.77;;;;;;;;;;4962925;28;20066;-70
2022/03/15 12:39:18;;;;;;;75.18;12.77;;;;;;;;;;4966491;28;20062;-73
2022/03/15 12:41:46;;;;;;;81.45;12.25;;;;;;;;;;4968571;28;20051;-71
2022/03/15 12:44:13;;;;;;;79.13;12.57;;;;;;;;;;4969866;28;20085;-69
2022/03/15 12:46:42;;;;;;;73.93;12.65;;;;;;;;;;4960273;28;20061;-69
2022/03/15 12:49:08;;;;;;;79.60;12.27;;;;;;;;;;4971448;28;20337;-72
2022/03/15 12:51:40;;;;;;;76.45;12.70;;;;;;;;;;4963505;28;20050;-69
2022/03/15 12:54:11;;;;;;;81.05;11.45;;;;;;;;;;4958355;28;20061;-71
2022/03/15 12:56:45;;;;;;;84.40;13.02;;;;;;;;;;4965956;28;20045;-72
2022/03/15 12:59:23;;;;;;;71.05;12.07;;;;;;;;;;4954639;28;20051;-74
2022/03/15 13:01:51;;;;;;;83.65;12.82;;;;;;;;;;4987422;28;20040;-75
2022/03/15 13:04:18;;;;;;;74.32;12.25;;;;;;;;;;4968307;28;20522;-71
2022/03/15 13:06:45;;;;;;;68.15;11.85;;;;;;;;;;4964818;28;20046;-71
2022/03/15 13:09:25;;;;;;;78.28;12.68;;;;;;;;;;4953698;28;20047;-76
2022/03/15 13:11:53;;;;;;;71.00;11.02;;;;;;;;;;4959576;28;20047;-73
2022/03/15 13:14:26;;;;;;;81.97;12.25;;;;;;;;;;4957028;28;20069;-70
2022/03/15 13:16:52;;;;;;;85.43;11.55;;;;;;;;;;4949564;28;20132;-76
2022/03/15 13:19:31;;;;;;;82.65;11.98;;;;;;;;;;4969870;28;20043;-74
2022/03/15 13:22:01;;;;;;;71.60;12.10;;;;;;;;;;4968061;28;20513;-72
2022/03/15 13:24:34;;;;;;;74.78;11.63;;;;;;;;;;4966948;28;20061;-71
2022/03/15 13:27:02;;;;;;;72.05;11.90;;;;;;;;;;4963128;28;20057;-75
2022/03/15 13:29:30;;;;;;;72.32;11.23;;;;;;;;;;4962584;28;20078;-75
2022/03/15 13:31:59;;;;;;;82.95;12.63;;;;;;;;;;4963380;28;20042;-71
2022/03/15 13:34:31;;;;;;;75.28;11.20;;;;;;;;;;4970410;28;20089;-70
2022/03/15 13:37:06;;;;;;;62.88;10.80;;;;;;;;;;4983999;28;20054;-71
2022/03/15 13:39:35;;;;;;;60.38;10.13;;;;;;;;;;4971807;28;20051;-69
2022/03/15 13:42:02;;;;;;;75.80;11.57;;;;;;;;;;4968413;28;20347;-70
2022/03/15 13:44:32;;;;;;;74.28;11.23;;;;;;;;;;4961131;28;20047;-71
2022/03/15 13:47:07;;;;;;;64.05;10.50;;;;;;;;;;4975972;28;20497;-73
2022/03/15 13:49:37;;;;;;;80.72;11.60;;;;;;;;;;4968114;28;20861;-69
2022/03/15 13:52:08;;;;;;;87.35;11.77;;;;;;;;;;4973090;28;20055;-75
2022/03/15 13:55:04;;;;;;;78.80;12.80;;;;;;;;;;4972874;28;20070;-71
2022/03/15 13:57:40;;;;;;;76.18;11.43;;;;;;;;;;4985057;28;20081;-75
2022/03/15 14:00:18;;;;;;;79.00;12.05;;;;;;;;;;4968239;28;20070;-70
2022/03/15 14:02:48;;;;;;;71.07;11.52;;;;;;;;;;4969364;28;20110;-73
2022/03/15 14:05:16;;;;;;;72.40;10.90;;;;;;;;;;4960573;28;20051;-75
2022/03/15 14:07:43;;;;;;;71.88;10.38;;;;;;;;;;4971655;28;20058;-72
2022/03/15 14:10:14;;;;;;;69.70;10.30;;;;;;;;;;4979202;28;20062;-75
2022/03/15 14:12:42;;;;;;;75.90;11.98;;;;;;;;;;4968287;28;20504;-72
2022/03/15 14:15:13;;;;;;;73.95;11.35;;;;;;;;;;4974628;28;20051;-75
2022/03/15 14:17:49;;;;;;;70.47;11.75;;;;;;;;;;4973184;28;20102;-76
2022/03/15 14:20:20;;;;;;;59.90;10.80;;;;;;;;;;4967404;28;20035;-72
2022/03/15 14:22:54;;;;;;;70.35;11.73;;;;;;;;;;4974110;28;20069;-73
2022/03/15 14:25:28;;;;;;;64.00;11.43;;;;;;;;;;4975433;28;20043;-71